Putney, Georgia
Current Conditions -  °F | °C
As of 7:53 PM on Thursday 27 Nov 2014 (Local Time) from KABY Reporting Station
Clear Clear  
Wind Chill: 39°   Ceiling: Unl
Heat Index: 43°   Visibility: 10mi
Dew Point: 32°   Wind: 6mph
Humidity: 65%   Direction: 330°NNW
Pressure: 30.38"   Gusts: NA
Location:  31.47°N, 84.12°W
Report Text: KABY 280053Z 33005KT 10SM CLR 06/00 A3038 RMK AO2 SLP287 T00610000 PWINO $
Loading
Personal Weather Stations






























Interactive Weather Map New forecast layout! Learn more

10-Day Weather Forecast

Advertisements
Track Severe Weather on mobile